sensor_id;sensor_type;location;lat;lon;timestamp;temperature;humidity
4308;DHT22;2167;53.448;9.984;2022-07-23T00:01:33;17.50;19.40
4308;DHT22;2167;53.448;9.984;2022-07-23T00:03:59;17.50;20.10
4308;DHT22;2167;53.448;9.984;2022-07-23T00:06:25;17.50;20.00
4308;DHT22;2167;53.448;9.984;2022-07-23T00:08:51;17.40;21.00
4308;DHT22;2167;53.448;9.984;2022-07-23T00:11:17;17.50;21.50
4308;DHT22;2167;53.448;9.984;2022-07-23T00:13:43;17.50;21.10
4308;DHT22;2167;53.448;9.984;2022-07-23T00:16:09;17.60;20.70
4308;DHT22;2167;53.448;9.984;2022-07-23T00:18:34;17.60;19.80
4308;DHT22;2167;53.448;9.984;2022-07-23T00:21:00;17.70;19.40
4308;DHT22;2167;53.448;9.984;2022-07-23T00:23:25;17.70;18.40
4308;DHT22;2167;53.448;9.984;2022-07-23T00:25:52;17.70;18.30
4308;DHT22;2167;53.448;9.984;2022-07-23T00:28:18;17.60;18.90
4308;DHT22;2167;53.448;9.984;2022-07-23T00:30:44;17.60;18.60
4308;DHT22;2167;53.448;9.984;2022-07-23T00:33:10;17.50;19.30
4308;DHT22;2167;53.448;9.984;2022-07-23T00:35:38;17.40;20.10
4308;DHT22;2167;53.448;9.984;2022-07-23T00:38:07;17.40;20.20
4308;DHT22;2167;53.448;9.984;2022-07-23T00:40:33;17.40;21.10
4308;DHT22;2167;53.448;9.984;2022-07-23T00:42:59;17.40;20.50
4308;DHT22;2167;53.448;9.984;2022-07-23T00:45:25;17.40;21.10
4308;DHT22;2167;53.448;9.984;2022-07-23T00:47:51;17.40;21.20
4308;DHT22;2167;53.448;9.984;2022-07-23T00:50:17;17.40;22.10
4308;DHT22;2167;53.448;9.984;2022-07-23T00:52:43;17.40;21.70
4308;DHT22;2167;53.448;9.984;2022-07-23T00:55:10;17.40;21.20
4308;DHT22;2167;53.448;9.984;2022-07-23T00:57:36;17.40;21.40
4308;DHT22;2167;53.448;9.984;2022-07-23T01:00:04;17.40;21.80
4308;DHT22;2167;53.448;9.984;2022-07-23T01:02:31;17.40;21.00
4308;DHT22;2167;53.448;9.984;2022-07-23T01:04:57;17.40;21.10
4308;DHT22;2167;53.448;9.984;2022-07-23T01:07:23;17.40;20.80
4308;DHT22;2167;53.448;9.984;2022-07-23T01:09:50;17.30;21.10
4308;DHT22;2167;53.448;9.984;2022-07-23T01:12:16;17.30;21.50
4308;DHT22;2167;53.448;9.984;2022-07-23T01:14:42;17.30;22.00
4308;DHT22;2167;53.448;9.984;2022-07-23T01:17:07;17.30;21.90
4308;DHT22;2167;53.448;9.984;2022-07-23T01:19:33;17.30;21.90
4308;DHT22;2167;53.448;9.984;2022-07-23T01:22:02;17.20;22.70
4308;DHT22;2167;53.448;9.984;2022-07-23T01:24:28;17.20;22.20
4308;DHT22;2167;53.448;9.984;2022-07-23T01:26:53;17.10;22.90
4308;DHT22;2167;53.448;9.984;2022-07-23T01:29:19;17.10;22.90
4308;DHT22;2167;53.448;9.984;2022-07-23T01:31:47;17.10;23.20
4308;DHT22;2167;53.448;9.984;2022-07-23T01:34:13;17.10;23.20
4308;DHT22;2167;53.448;9.984;2022-07-23T01:36:39;17.10;23.90
4308;DHT22;2167;53.448;9.984;2022-07-23T01:39:06;17.10;24.20
4308;DHT22;2167;53.448;9.984;2022-07-23T01:41:32;16.90;24.00
4308;DHT22;2167;53.448;9.984;2022-07-23T01:43:58;16.90;24.80
4308;DHT22;2167;53.448;9.984;2022-07-23T01:46:24;16.90;24.60
4308;DHT22;2167;53.448;9.984;2022-07-23T01:48:50;16.90;25.40
4308;DHT22;2167;53.448;9.984;2022-07-23T01:51:15;16.80;25.70
4308;DHT22;2167;53.448;9.984;2022-07-23T01:53:41;16.80;25.90
4308;DHT22;2167;53.448;9.984;2022-07-23T01:56:07;16.70;26.90
4308;DHT22;2167;53.448;9.984;2022-07-23T01:58:32;16.70;26.90
4308;DHT22;2167;53.448;9.984;2022-07-23T02:00:58;16.70;26.80
4308;DHT22;2167;53.448;9.984;2022-07-23T02:03:24;16.60;27.20
4308;DHT22;2167;53.448;9.984;2022-07-23T02:05:50;16.70;27.60
4308;DHT22;2167;53.448;9.984;2022-07-23T02:08:16;16.60;27.50
4308;DHT22;2167;53.448;9.984;2022-07-23T02:10:42;16.60;27.50
4308;DHT22;2167;53.448;9.984;2022-07-23T02:13:08;16.50;27.90
4308;DHT22;2167;53.448;9.984;2022-07-23T02:15:34;16.50;28.50
4308;DHT22;2167;53.448;9.984;2022-07-23T02:18:00;16.50;28.20
4308;DHT22;2167;53.448;9.984;2022-07-23T02:20:26;16.60;28.20
4308;DHT22;2167;53.448;9.984;2022-07-23T02:22:51;16.60;28.50
4308;DHT22;2167;53.448;9.984;2022-07-23T02:25:17;16.50;28.40
4308;DHT22;2167;53.448;9.984;2022-07-23T02:27:43;16.50;28.10
4308;DHT22;2167;53.448;9.984;2022-07-23T02:30:09;16.40;28.10
4308;DHT22;2167;53.448;9.984;2022-07-23T02:32:36;16.40;28.70
4308;DHT22;2167;53.448;9.984;2022-07-23T02:35:03;16.40;29.10
4308;DHT22;2167;53.448;9.984;2022-07-23T02:37:29;16.40;29.70
4308;DHT22;2167;53.448;9.984;2022-07-23T02:39:55;16.30;29.80
4308;DHT22;2167;53.448;9.984;2022-07-23T02:42:20;16.20;29.90
4308;DHT22;2167;53.448;9.984;2022-07-23T02:44:46;16.20;30.40
4308;DHT22;2167;53.448;9.984;2022-07-23T02:47:12;16.20;30.60
4308;DHT22;2167;53.448;9.984;2022-07-23T02:49:37;16.20;30.20
4308;DHT22;2167;53.448;9.984;2022-07-23T02:52:03;16.20;30.40
4308;DHT22;2167;53.448;9.984;2022-07-23T02:54:29;16.10;30.80
4308;DHT22;2167;53.448;9.984;2022-07-23T02:56:55;16.10;31.20
4308;DHT22;2167;53.448;9.984;2022-07-23T02:59:20;16.10;31.30
4308;DHT22;2167;53.448;9.984;2022-07-23T03:01:46;16.10;32.60
4308;DHT22;2167;53.448;9.984;2022-07-23T03:04:12;16.10;31.70
4308;DHT22;2167;53.448;9.984;2022-07-23T03:06:38;16.00;31.30
4308;DHT22;2167;53.448;9.984;2022-07-23T03:09:04;16.00;31.20
4308;DHT22;2167;53.448;9.984;2022-07-23T03:11:30;15.90;31.40
4308;DHT22;2167;53.448;9.984;2022-07-23T03:13:56;15.90;32.00
4308;DHT22;2167;53.448;9.984;2022-07-23T03:16:21;15.90;32.70
4308;DHT22;2167;53.448;9.984;2022-07-23T03:18:47;15.90;32.90
4308;DHT22;2167;53.448;9.984;2022-07-23T03:21:13;15.80;33.00
4308;DHT22;2167;53.448;9.984;2022-07-23T03:23:38;15.80;33.90
4308;DHT22;2167;53.448;9.984;2022-07-23T03:26:04;15.80;34.10
4308;DHT22;2167;53.448;9.984;2022-07-23T03:28:30;15.80;34.40
4308;DHT22;2167;53.448;9.984;2022-07-23T03:30:56;15.80;34.60
4308;DHT22;2167;53.448;9.984;2022-07-23T03:33:22;15.70;35.00
4308;DHT22;2167;53.448;9.984;2022-07-23T03:35:48;15.70;35.40
4308;DHT22;2167;53.448;9.984;2022-07-23T03:38:14;15.70;35.30
4308;DHT22;2167;53.448;9.984;2022-07-23T03:40:40;15.60;36.20
4308;DHT22;2167;53.448;9.984;2022-07-23T03:43:06;15.60;35.60
4308;DHT22;2167;53.448;9.984;2022-07-23T03:45:33;15.50;36.00
4308;DHT22;2167;53.448;9.984;2022-07-23T03:47:58;15.50;36.00
4308;DHT22;2167;53.448;9.984;2022-07-23T03:50:24;15.50;37.20
4308;DHT22;2167;53.448;9.984;2022-07-23T03:52:49;15.50;37.10
4308;DHT22;2167;53.448;9.984;2022-07-23T03:55:15;15.50;37.00
4308;DHT22;2167;53.448;9.984;2022-07-23T03:57:41;15.50;37.40
4308;DHT22;2167;53.448;9.984;2022-07-23T04:00:08;15.40;38.50
4308;DHT22;2167;53.448;9.984;2022-07-23T04:02:36;15.40;39.10
4308;DHT22;2167;53.448;9.984;2022-07-23T04:05:01;15.40;39.90
4308;DHT22;2167;53.448;9.984;2022-07-23T04:07:27;15.40;40.10
4308;DHT22;2167;53.448;9.984;2022-07-23T04:09:53;15.50;40.30
4308;DHT22;2167;53.448;9.984;2022-07-23T04:12:18;15.60;40.40
4308;DHT22;2167;53.448;9.984;2022-07-23T04:14:44;15.60;40.20
4308;DHT22;2167;53.448;9.984;2022-07-23T04:17:10;15.60;40.00
4308;DHT22;2167;53.448;9.984;2022-07-23T04:19:36;15.70;40.50
4308;DHT22;2167;53.448;9.984;2022-07-23T04:22:06;15.70;39.60
4308;DHT22;2167;53.448;9.984;2022-07-23T04:24:32;15.70;39.50
4308;DHT22;2167;53.448;9.984;2022-07-23T04:26:58;15.70;39.50
4308;DHT22;2167;53.448;9.984;2022-07-23T04:29:24;15.70;39.60
4308;DHT22;2167;53.448;9.984;2022-07-23T04:31:49;15.70;39.60
4308;DHT22;2167;53.448;9.984;2022-07-23T04:34:15;15.80;39.60
4308;DHT22;2167;53.448;9.984;2022-07-23T04:36:41;15.80;39.60
4308;DHT22;2167;53.448;9.984;2022-07-23T04:39:06;15.80;39.70
4308;DHT22;2167;53.448;9.984;2022-07-23T04:41:32;15.90;39.50
4308;DHT22;2167;53.448;9.984;2022-07-23T04:43:59;15.90;39.80
4308;DHT22;2167;53.448;9.984;2022-07-23T04:46:25;15.90;39.20
4308;DHT22;2167;53.448;9.984;2022-07-23T04:48:50;15.80;38.90
4308;DHT22;2167;53.448;9.984;2022-07-23T04:51:16;15.90;39.30
4308;DHT22;2167;53.448;9.984;2022-07-23T04:53:42;15.90;38.90
4308;DHT22;2167;53.448;9.984;2022-07-23T04:56:07;16.00;39.50
4308;DHT22;2167;53.448;9.984;2022-07-23T04:58:33;16.00;39.00
4308;DHT22;2167;53.448;9.984;2022-07-23T05:00:58;16.10;39.30
4308;DHT22;2167;53.448;9.984;2022-07-23T05:03:24;16.10;38.70
4308;DHT22;2167;53.448;9.984;2022-07-23T05:05:50;16.10;38.40
4308;DHT22;2167;53.448;9.984;2022-07-23T05:08:15;16.10;38.50
4308;DHT22;2167;53.448;9.984;2022-07-23T05:10:41;16.20;38.30
4308;DHT22;2167;53.448;9.984;2022-07-23T05:13:06;16.20;38.50
4308;DHT22;2167;53.448;9.984;2022-07-23T05:15:32;16.20;38.10
4308;DHT22;2167;53.448;9.984;2022-07-23T05:17:58;16.30;37.30
4308;DHT22;2167;53.448;9.984;2022-07-23T05:20:24;16.20;36.70
4308;DHT22;2167;53.448;9.984;2022-07-23T05:22:49;16.30;37.40
4308;DHT22;2167;53.448;9.984;2022-07-23T05:25:15;16.30;37.70
4308;DHT22;2167;53.448;9.984;2022-07-23T05:27:40;16.40;37.60
4308;DHT22;2167;53.448;9.984;2022-07-23T05:30:07;16.40;37.20
4308;DHT22;2167;53.448;9.984;2022-07-23T05:32:32;16.30;37.40
4308;DHT22;2167;53.448;9.984;2022-07-23T05:34:58;16.40;37.50
4308;DHT22;2167;53.448;9.984;2022-07-23T05:37:24;16.50;37.00
4308;DHT22;2167;53.448;9.984;2022-07-23T05:39:49;16.50;36.80
4308;DHT22;2167;53.448;9.984;2022-07-23T05:42:16;16.60;36.00
4308;DHT22;2167;53.448;9.984;2022-07-23T05:44:41;16.60;35.80
4308;DHT22;2167;53.448;9.984;2022-07-23T05:47:07;16.70;36.10
4308;DHT22;2167;53.448;9.984;2022-07-23T05:49:32;16.70;36.10
4308;DHT22;2167;53.448;9.984;2022-07-23T05:51:58;16.70;35.50
4308;DHT22;2167;53.448;9.984;2022-07-23T05:54:24;16.80;34.60
4308;DHT22;2167;53.448;9.984;2022-07-23T05:56:50;16.80;34.60
4308;DHT22;2167;53.448;9.984;2022-07-23T05:59:15;16.90;34.10
4308;DHT22;2167;53.448;9.984;2022-07-23T06:01:41;16.90;34.30
4308;DHT22;2167;53.448;9.984;2022-07-23T06:04:07;16.90;31.80
4308;DHT22;2167;53.448;9.984;2022-07-23T06:06:33;16.90;31.30
4308;DHT22;2167;53.448;9.984;2022-07-23T06:08:59;16.90;31.10
4308;DHT22;2167;53.448;9.984;2022-07-23T06:11:24;16.80;31.60
4308;DHT22;2167;53.448;9.984;2022-07-23T06:13:50;16.90;32.30
4308;DHT22;2167;53.448;9.984;2022-07-23T06:16:15;16.90;32.50
4308;DHT22;2167;53.448;9.984;2022-07-23T06:18:41;16.90;31.40
4308;DHT22;2167;53.448;9.984;2022-07-23T06:21:09;17.00;31.70
4308;DHT22;2167;53.448;9.984;2022-07-23T06:23:34;17.10;32.10
4308;DHT22;2167;53.448;9.984;2022-07-23T06:26:00;17.10;32.00
4308;DHT22;2167;53.448;9.984;2022-07-23T06:28:25;17.20;31.10
4308;DHT22;2167;53.448;9.984;2022-07-23T06:30:51;17.30;30.80
4308;DHT22;2167;53.448;9.984;2022-07-23T06:33:17;17.30;30.60
4308;DHT22;2167;53.448;9.984;2022-07-23T06:35:42;17.40;29.00
4308;DHT22;2167;53.448;9.984;2022-07-23T06:38:08;17.40;28.90
4308;DHT22;2167;53.448;9.984;2022-07-23T06:40:33;17.50;28.80
4308;DHT22;2167;53.448;9.984;2022-07-23T06:42:59;17.60;28.50
4308;DHT22;2167;53.448;9.984;2022-07-23T06:45:25;17.60;25.90
4308;DHT22;2167;53.448;9.984;2022-07-23T06:47:50;17.70;26.60
4308;DHT22;2167;53.448;9.984;2022-07-23T06:50:16;17.70;27.10
4308;DHT22;2167;53.448;9.984;2022-07-23T06:52:42;17.60;26.30
4308;DHT22;2167;53.448;9.984;2022-07-23T06:55:07;17.50;26.40
4308;DHT22;2167;53.448;9.984;2022-07-23T06:57:33;17.60;27.30
4308;DHT22;2167;53.448;9.984;2022-07-23T06:59:59;17.60;27.10
4308;DHT22;2167;53.448;9.984;2022-07-23T07:02:24;17.70;26.90
4308;DHT22;2167;53.448;9.984;2022-07-23T07:04:50;17.80;27.60
4308;DHT22;2167;53.448;9.984;2022-07-23T07:07:16;17.80;25.20
4308;DHT22;2167;53.448;9.984;2022-07-23T07:09:41;17.80;24.80
4308;DHT22;2167;53.448;9.984;2022-07-23T07:12:07;17.90;25.00
4308;DHT22;2167;53.448;9.984;2022-07-23T07:14:33;17.90;25.00
4308;DHT22;2167;53.448;9.984;2022-07-23T07:16:58;17.90;24.00
4308;DHT22;2167;53.448;9.984;2022-07-23T07:19:24;17.80;24.30
4308;DHT22;2167;53.448;9.984;2022-07-23T07:21:50;18.00;25.20
4308;DHT22;2167;53.448;9.984;2022-07-23T07:24:15;18.00;25.30
4308;DHT22;2167;53.448;9.984;2022-07-23T07:26:41;18.00;24.30
4308;DHT22;2167;53.448;9.984;2022-07-23T07:29:06;17.90;24.50
4308;DHT22;2167;53.448;9.984;2022-07-23T07:31:32;18.00;24.70
4308;DHT22;2167;53.448;9.984;2022-07-23T07:33:58;18.10;24.70
4308;DHT22;2167;53.448;9.984;2022-07-23T07:36:24;18.20;24.50
4308;DHT22;2167;53.448;9.984;2022-07-23T07:38:49;18.40;25.50
4308;DHT22;2167;53.448;9.984;2022-07-23T07:41:15;18.50;24.00
4308;DHT22;2167;53.448;9.984;2022-07-23T07:43:41;18.70;22.10
4308;DHT22;2167;53.448;9.984;2022-07-23T07:46:07;18.80;19.40
4308;DHT22;2167;53.448;9.984;2022-07-23T07:48:37;18.90;18.90
4308;DHT22;2167;53.448;9.984;2022-07-23T07:51:04;19.00;17.20
4308;DHT22;2167;53.448;9.984;2022-07-23T07:53:30;19.00;17.50
4308;DHT22;2167;53.448;9.984;2022-07-23T07:55:55;18.90;13.70
4308;DHT22;2167;53.448;9.984;2022-07-23T07:58:21;19.00;14.60
4308;DHT22;2167;53.448;9.984;2022-07-23T08:00:47;19.10;15.70
4308;DHT22;2167;53.448;9.984;2022-07-23T08:03:12;19.10;12.70
4308;DHT22;2167;53.448;9.984;2022-07-23T08:05:38;19.30;13.50
4308;DHT22;2167;53.448;9.984;2022-07-23T08:08:04;19.40;13.10
4308;DHT22;2167;53.448;9.984;2022-07-23T08:10:30;19.50;11.90
4308;DHT22;2167;53.448;9.984;2022-07-23T08:12:58;19.50;9.70
4308;DHT22;2167;53.448;9.984;2022-07-23T08:15:27;19.60;8.40
4308;DHT22;2167;53.448;9.984;2022-07-23T08:17:53;19.80;8.20
4308;DHT22;2167;53.448;9.984;2022-07-23T08:20:21;19.90;5.40
4308;DHT22;2167;53.448;9.984;2022-07-23T08:22:58;19.70;4.00
4308;DHT22;2167;53.448;9.984;2022-07-23T08:25:32;19.60;6.80
4308;DHT22;2167;53.448;9.984;2022-07-23T08:27:59;19.50;7.00
4308;DHT22;2167;53.448;9.984;2022-07-23T08:30:26;19.30;9.50
4308;DHT22;2167;53.448;9.984;2022-07-23T08:33:06;19.30;11.50
4308;DHT22;2167;53.448;9.984;2022-07-23T08:35:46;19.20;12.80
4308;DHT22;2167;53.448;9.984;2022-07-23T08:38:15;18.90;11.70
4308;DHT22;2167;53.448;9.984;2022-07-23T08:40:46;18.80;13.20
4308;DHT22;2167;53.448;9.984;2022-07-23T08:43:15;18.70;12.60
4308;DHT22;2167;53.448;9.984;2022-07-23T08:45:43;18.60;12.60
4308;DHT22;2167;53.448;9.984;2022-07-23T08:48:14;18.60;13.20
4308;DHT22;2167;53.448;9.984;2022-07-23T08:50:43;18.70;14.00
4308;DHT22;2167;53.448;9.984;2022-07-23T08:53:09;18.90;14.20
4308;DHT22;2167;53.448;9.984;2022-07-23T08:55:35;19.00;12.40
4308;DHT22;2167;53.448;9.984;2022-07-23T08:58:01;19.00;12.00
4308;DHT22;2167;53.448;9.984;2022-07-23T09:00:27;19.10;13.00
4308;DHT22;2167;53.448;9.984;2022-07-23T09:02:53;19.10;12.10
4308;DHT22;2167;53.448;9.984;2022-07-23T09:05:20;19.10;10.30
4308;DHT22;2167;53.448;9.984;2022-07-23T09:13:38;19.30;10.70
4308;DHT22;2167;53.448;9.984;2022-07-23T09:16:16;19.50;13.50
4308;DHT22;2167;53.448;9.984;2022-07-23T09:18:53;19.60;12.00
4308;DHT22;2167;53.448;9.984;2022-07-23T09:21:52;19.80;10.90
4308;DHT22;2167;53.448;9.984;2022-07-23T09:24:12;20.00;10.90
4308;DHT22;2167;53.448;9.984;2022-07-23T09:26:41;20.20;10.60
4308;DHT22;2167;53.448;9.984;2022-07-23T09:36:50;20.90;6.00
4308;DHT22;2167;53.448;9.984;2022-07-23T09:39:24;20.90;1.60
4308;DHT22;2167;53.448;9.984;2022-07-23T09:41:50;20.90;1.00
4308;DHT22;2167;53.448;9.984;2022-07-23T09:44:18;20.80;1.00
4308;DHT22;2167;53.448;9.984;2022-07-23T09:46:46;20.80;1.00
4308;DHT22;2167;53.448;9.984;2022-07-23T09:49:23;20.90;1.00
4308;DHT22;2167;53.448;9.984;2022-07-23T09:51:53;21.00;1.00
4308;DHT22;2167;53.448;9.984;2022-07-23T09:54:25;21.10;1.00
4308;DHT22;2167;53.448;9.984;2022-07-23T09:56:53;21.20;1.00
4308;DHT22;2167;53.448;9.984;2022-07-23T09:59:24;21.20;1.00
4308;DHT22;2167;53.448;9.984;2022-07-23T10:01:50;21.30;1.00
4308;DHT22;2167;53.448;9.984;2022-07-23T10:04:17;21.40;1.00
4308;DHT22;2167;53.448;9.984;2022-07-23T10:06:43;21.50;1.00
4308;DHT22;2167;53.448;9.984;2022-07-23T10:09:12;21.50;1.00
4308;DHT22;2167;53.448;9.984;2022-07-23T10:11:38;21.40;1.00
4308;DHT22;2167;53.448;9.984;2022-07-23T10:14:04;21.40;1.00
4308;DHT22;2167;53.448;9.984;2022-07-23T10:16:31;21.20;1.00
4308;DHT22;2167;53.448;9.984;2022-07-23T10:18:57;21.20;1.00
4308;DHT22;2167;53.448;9.984;2022-07-23T10:21:45;21.00;1.00
4308;DHT22;2167;53.448;9.984;2022-07-23T10:29:52;20.70;1.00
4308;DHT22;2167;53.448;9.984;2022-07-23T10:32:31;20.70;1.00
4308;DHT22;2167;53.448;9.984;2022-07-23T10:35:22;20.90;1.00
4308;DHT22;2167;53.448;9.984;2022-07-23T10:38:00;21.00;1.00
4308;DHT22;2167;53.448;9.984;2022-07-23T10:40:26;21.10;1.00
4308;DHT22;2167;53.448;9.984;2022-07-23T10:42:59;21.30;1.00
4308;DHT22;2167;53.448;9.984;2022-07-23T10:45:31;21.30;1.00
4308;DHT22;2167;53.448;9.984;2022-07-23T10:48:15;21.50;1.00
4308;DHT22;2167;53.448;9.984;2022-07-23T10:50:42;21.60;1.00
4308;DHT22;2167;53.448;9.984;2022-07-23T10:53:26;21.80;1.00
4308;DHT22;2167;53.448;9.984;2022-07-23T10:55:52;22.00;1.00
4308;DHT22;2167;53.448;9.984;2022-07-23T10:58:50;22.10;1.00
4308;DHT22;2167;53.448;9.984;2022-07-23T11:01:37;22.10;1.00
4308;DHT22;2167;53.448;9.984;2022-07-23T11:04:04;22.00;1.00
4308;DHT22;2167;53.448;9.984;2022-07-23T11:09:41;22.20;1.00
4308;DHT22;2167;53.448;9.984;2022-07-23T11:17:23;22.50;1.00
4308;DHT22;2167;53.448;9.984;2022-07-23T11:22:47;22.60;1.00
4308;DHT22;2167;53.448;9.984;2022-07-23T11:25:30;22.60;1.00
4308;DHT22;2167;53.448;9.984;2022-07-23T11:28:17;22.80;1.00
4308;DHT22;2167;53.448;9.984;2022-07-23T11:30:46;23.00;1.00
4308;DHT22;2167;53.448;9.984;2022-07-23T11:33:16;23.20;1.00
4308;DHT22;2167;53.448;9.984;2022-07-23T11:35:44;23.20;1.00
4308;DHT22;2167;53.448;9.984;2022-07-23T11:38:19;23.10;1.00
4308;DHT22;2167;53.448;9.984;2022-07-23T11:40:55;22.90;1.00
4308;DHT22;2167;53.448;9.984;2022-07-23T11:43:24;22.70;1.00
4308;DHT22;2167;53.448;9.984;2022-07-23T11:45:52;22.60;1.00
4308;DHT22;2167;53.448;9.984;2022-07-23T11:48:23;22.50;1.00
4308;DHT22;2167;53.448;9.984;2022-07-23T11:50:50;22.60;1.00
4308;DHT22;2167;53.448;9.984;2022-07-23T11:53:44;22.70;1.00
4308;DHT22;2167;53.448;9.984;2022-07-23T11:56:11;22.70;1.00
4308;DHT22;2167;53.448;9.984;2022-07-23T11:58:38;22.50;1.00
4308;DHT22;2167;53.448;9.984;2022-07-23T12:01:04;22.50;1.00
4308;DHT22;2167;53.448;9.984;2022-07-23T12:03:30;22.40;1.00
4308;DHT22;2167;53.448;9.984;2022-07-23T12:05:58;22.30;1.00
4308;DHT22;2167;53.448;9.984;2022-07-23T12:08:24;22.30;1.00
4308;DHT22;2167;53.448;9.984;2022-07-23T12:10:50;22.20;1.00
4308;DHT22;2167;53.448;9.984;2022-07-23T12:13:18;22.40;1.00
4308;DHT22;2167;53.448;9.984;2022-07-23T12:15:52;22.50;1.00
4308;DHT22;2167;53.448;9.984;2022-07-23T12:18:23;22.50;1.00
4308;DHT22;2167;53.448;9.984;2022-07-23T12:20:51;22.50;1.00
4308;DHT22;2167;53.448;9.984;2022-07-23T12:23:19;22.50;1.00
4308;DHT22;2167;53.448;9.984;2022-07-23T12:25:47;22.60;1.00
4308;DHT22;2167;53.448;9.984;2022-07-23T12:30:51;22.90;1.00
4308;DHT22;2167;53.448;9.984;2022-07-23T12:33:25;23.00;1.00
4308;DHT22;2167;53.448;9.984;2022-07-23T12:35:53;23.20;1.00
4308;DHT22;2167;53.448;9.984;2022-07-23T12:38:20;23.10;1.00
4308;DHT22;2167;53.448;9.984;2022-07-23T12:40:51;22.90;1.00
4308;DHT22;2167;53.448;9.984;2022-07-23T12:43:23;22.90;1.00
4308;DHT22;2167;53.448;9.984;2022-07-23T12:45:51;22.90;1.00
4308;DHT22;2167;53.448;9.984;2022-07-23T12:48:38;22.60;1.00
4308;DHT22;2167;53.448;9.984;2022-07-23T12:53:54;22.30;1.00
4308;DHT22;2167;53.448;9.984;2022-07-23T12:56:28;22.10;1.00
4308;DHT22;2167;53.448;9.984;2022-07-23T12:58:57;22.00;1.00
4308;DHT22;2167;53.448;9.984;2022-07-23T13:01:26;21.80;1.00
4308;DHT22;2167;53.448;9.984;2022-07-23T13:06:43;21.90;1.00
4308;DHT22;2167;53.448;9.984;2022-07-23T13:09:12;21.90;1.00
4308;DHT22;2167;53.448;9.984;2022-07-23T13:11:38;21.90;1.00
4308;DHT22;2167;53.448;9.984;2022-07-23T13:14:04;21.90;1.00
4308;DHT22;2167;53.448;9.984;2022-07-23T13:16:31;21.90;1.00
4308;DHT22;2167;53.448;9.984;2022-07-23T13:18:58;22.20;1.00
4308;DHT22;2167;53.448;9.984;2022-07-23T13:21:24;22.30;1.00
4308;DHT22;2167;53.448;9.984;2022-07-23T13:23:50;22.30;1.00
4308;DHT22;2167;53.448;9.984;2022-07-23T13:26:16;22.30;1.00
4308;DHT22;2167;53.448;9.984;2022-07-23T13:28:41;22.20;1.00
4308;DHT22;2167;53.448;9.984;2022-07-23T13:31:07;22.10;1.00
4308;DHT22;2167;53.448;9.984;2022-07-23T13:33:33;22.10;1.00
4308;DHT22;2167;53.448;9.984;2022-07-23T13:35:59;22.30;1.00
4308;DHT22;2167;53.448;9.984;2022-07-23T13:38:25;22.40;1.00
4308;DHT22;2167;53.448;9.984;2022-07-23T13:40:52;22.50;1.00
4308;DHT22;2167;53.448;9.984;2022-07-23T13:43:20;22.40;1.00
4308;DHT22;2167;53.448;9.984;2022-07-23T13:45:46;22.30;1.00
4308;DHT22;2167;53.448;9.984;2022-07-23T13:48:13;22.40;1.00
4308;DHT22;2167;53.448;9.984;2022-07-23T13:50:40;22.40;1.00
4308;DHT22;2167;53.448;9.984;2022-07-23T13:53:08;22.40;1.00
4308;DHT22;2167;53.448;9.984;2022-07-23T13:55:35;22.30;1.00
4308;DHT22;2167;53.448;9.984;2022-07-23T13:58:01;22.20;1.00
4308;DHT22;2167;53.448;9.984;2022-07-23T14:00:28;22.20;1.00
4308;DHT22;2167;53.448;9.984;2022-07-23T14:02:54;22.30;1.00
4308;DHT22;2167;53.448;9.984;2022-07-23T14:05:20;22.20;1.00
4308;DHT22;2167;53.448;9.984;2022-07-23T14:07:46;22.30;1.00
4308;DHT22;2167;53.448;9.984;2022-07-23T14:10:15;22.20;1.00
4308;DHT22;2167;53.448;9.984;2022-07-23T14:12:41;22.00;1.00
4308;DHT22;2167;53.448;9.984;2022-07-23T14:15:07;22.10;1.00
4308;DHT22;2167;53.448;9.984;2022-07-23T14:17:35;22.00;1.00
4308;DHT22;2167;53.448;9.984;2022-07-23T14:20:02;22.00;1.00
4308;DHT22;2167;53.448;9.984;2022-07-23T14:22:28;22.00;1.00
4308;DHT22;2167;53.448;9.984;2022-07-23T14:24:53;22.10;1.00
4308;DHT22;2167;53.448;9.984;2022-07-23T14:27:19;22.20;1.00
4308;DHT22;2167;53.448;9.984;2022-07-23T14:29:45;22.40;1.00
4308;DHT22;2167;53.448;9.984;2022-07-23T14:32:11;22.70;1.00
4308;DHT22;2167;53.448;9.984;2022-07-23T14:34:36;23.10;1.00
4308;DHT22;2167;53.448;9.984;2022-07-23T14:37:02;23.50;1.00
4308;DHT22;2167;53.448;9.984;2022-07-23T14:39:28;23.60;1.00
4308;DHT22;2167;53.448;9.984;2022-07-23T14:41:53;23.60;1.00
4308;DHT22;2167;53.448;9.984;2022-07-23T14:44:19;23.40;1.00
4308;DHT22;2167;53.448;9.984;2022-07-23T14:46:45;23.20;1.00
4308;DHT22;2167;53.448;9.984;2022-07-23T14:49:10;23.10;1.00
4308;DHT22;2167;53.448;9.984;2022-07-23T14:51:36;23.20;1.00
4308;DHT22;2167;53.448;9.984;2022-07-23T14:54:03;23.40;1.00
4308;DHT22;2167;53.448;9.984;2022-07-23T14:56:29;23.60;1.00
4308;DHT22;2167;53.448;9.984;2022-07-23T14:58:55;24.00;1.00
4308;DHT22;2167;53.448;9.984;2022-07-23T15:01:23;23.90;1.00
4308;DHT22;2167;53.448;9.984;2022-07-23T15:03:49;23.80;1.00
4308;DHT22;2167;53.448;9.984;2022-07-23T15:06:16;23.40;1.00
4308;DHT22;2167;53.448;9.984;2022-07-23T15:08:43;23.40;1.00
4308;DHT22;2167;53.448;9.984;2022-07-23T15:11:08;23.20;1.00
4308;DHT22;2167;53.448;9.984;2022-07-23T15:13:35;23.20;1.00
4308;DHT22;2167;53.448;9.984;2022-07-23T15:16:02;23.20;1.00
4308;DHT22;2167;53.448;9.984;2022-07-23T15:18:28;23.20;1.00
4308;DHT22;2167;53.448;9.984;2022-07-23T15:20:54;23.20;1.00
4308;DHT22;2167;53.448;9.984;2022-07-23T15:23:20;23.20;1.00
4308;DHT22;2167;53.448;9.984;2022-07-23T15:25:45;23.20;1.00
4308;DHT22;2167;53.448;9.984;2022-07-23T15:28:11;23.00;1.00
4308;DHT22;2167;53.448;9.984;2022-07-23T15:30:37;22.80;1.00
4308;DHT22;2167;53.448;9.984;2022-07-23T15:33:03;22.90;1.00
4308;DHT22;2167;53.448;9.984;2022-07-23T15:35:30;22.80;1.00
4308;DHT22;2167;53.448;9.984;2022-07-23T15:37:56;22.60;1.00
4308;DHT22;2167;53.448;9.984;2022-07-23T15:40:21;22.50;1.00
4308;DHT22;2167;53.448;9.984;2022-07-23T15:42:47;22.50;1.00
4308;DHT22;2167;53.448;9.984;2022-07-23T15:45:13;22.50;1.00
4308;DHT22;2167;53.448;9.984;2022-07-23T15:47:40;22.30;1.00
4308;DHT22;2167;53.448;9.984;2022-07-23T15:50:07;22.30;1.00
4308;DHT22;2167;53.448;9.984;2022-07-23T15:52:32;22.20;1.00
4308;DHT22;2167;53.448;9.984;2022-07-23T15:54:58;22.20;1.00
4308;DHT22;2167;53.448;9.984;2022-07-23T15:57:24;22.40;1.00
4308;DHT22;2167;53.448;9.984;2022-07-23T15:59:49;22.60;1.00
4308;DHT22;2167;53.448;9.984;2022-07-23T16:02:15;22.80;1.00
4308;DHT22;2167;53.448;9.984;2022-07-23T16:04:41;22.90;1.00
4308;DHT22;2167;53.448;9.984;2022-07-23T16:07:07;22.90;1.00
4308;DHT22;2167;53.448;9.984;2022-07-23T16:09:33;22.70;1.00
4308;DHT22;2167;53.448;9.984;2022-07-23T16:11:58;22.50;1.00
4308;DHT22;2167;53.448;9.984;2022-07-23T16:14:24;22.20;1.00
4308;DHT22;2167;53.448;9.984;2022-07-23T16:16:50;22.10;1.00
4308;DHT22;2167;53.448;9.984;2022-07-23T16:19:18;22.20;1.00
4308;DHT22;2167;53.448;9.984;2022-07-23T16:21:43;22.20;1.00
4308;DHT22;2167;53.448;9.984;2022-07-23T16:24:09;22.10;1.00
4308;DHT22;2167;53.448;9.984;2022-07-23T16:26:34;22.20;1.00
4308;DHT22;2167;53.448;9.984;2022-07-23T16:29:00;22.10;1.00
4308;DHT22;2167;53.448;9.984;2022-07-23T16:31:26;22.10;1.00
4308;DHT22;2167;53.448;9.984;2022-07-23T16:33:52;22.20;1.00
4308;DHT22;2167;53.448;9.984;2022-07-23T16:36:18;22.10;1.00
4308;DHT22;2167;53.448;9.984;2022-07-23T16:38:45;22.20;1.00
4308;DHT22;2167;53.448;9.984;2022-07-23T16:41:11;22.30;1.00
4308;DHT22;2167;53.448;9.984;2022-07-23T16:43:37;22.50;1.00
4308;DHT22;2167;53.448;9.984;2022-07-23T16:46:03;22.50;1.00
4308;DHT22;2167;53.448;9.984;2022-07-23T16:48:29;22.20;1.00